Time;durP1;ratioP1;P1;durP2;ratioP2;P2;SDS_P1;SDS_P2;PMS_P1;PMS_P2;Temp;Humidity;BMP_temperature;BMP_pressure;BME280_temperature;BME280_humidity;BME280_pressure;Samples;Min_cycle;Max_cycle;Signal;HPM_P1;HPM_P2
2021/10/06 00:01:34;;;;;;;6.00;4.50;;;14.10;99.90;;;;;;5022474;23;20559;-54
2021/10/06 00:04:01;;;;;;;6.50;4.60;;;14.00;99.90;;;;;;5015090;28;20465;-55
2021/10/06 00:06:28;;;;;;;5.70;4.87;;;14.10;99.90;;;;;;5022202;23;20488;-56
2021/10/06 00:08:54;;;;;;;5.90;4.33;;;14.10;99.90;;;;;;5038432;28;20473;-40
2021/10/06 00:21:44;;;;;;;7.13;4.63;;;14.10;99.90;;;;;;5155913;23;20470;-41
2021/10/06 00:24:10;;;;;;;8.17;4.50;;;14.10;99.90;;;;;;5059340;28;20409;-44
2021/10/06 00:26:37;;;;;;;4.90;3.87;;;14.20;99.90;;;;;;5044434;23;21058;-58
2021/10/06 00:29:08;;;;;;;5.17;4.20;;;14.10;99.90;;;;;;5034519;28;20443;-57
2021/10/06 00:31:34;;;;;;;6.60;3.97;;;14.10;99.90;;;;;;5029532;23;20497;-54
2021/10/06 00:34:01;;;;;;;5.20;3.90;;;14.10;99.90;;;;;;5015128;28;20526;-55
2021/10/06 00:36:28;;;;;;;4.30;3.07;;;14.00;99.90;;;;;;5021855;23;20492;-57
2021/10/06 00:38:56;;;;;;;4.80;3.60;;;14.00;99.90;;;;;;5014162;28;20839;-57
2021/10/06 00:43:58;;;;;;;7.90;4.50;;;14.10;99.90;;;;;;5057746;23;20536;-55
2021/10/06 00:46:28;;;;;;;6.77;4.03;;;14.10;99.90;;;;;;5058656;28;20876;-56
2021/10/06 00:48:54;;;;;;;5.90;4.67;;;14.00;99.90;;;;;;5031448;23;20583;-57
2021/10/06 00:51:21;;;;;;;5.30;4.17;;;14.00;99.90;;;;;;5018844;28;20828;-58
2021/10/06 00:53:48;;;;;;;5.77;4.20;;;13.90;99.90;;;;;;5026024;23;20551;-57
2021/10/06 00:56:20;;;;;;;4.43;3.83;;;14.00;99.90;;;;;;5019246;28;20483;-57
2021/10/06 00:58:50;;;;;;;6.17;4.90;;;14.00;99.90;;;;;;5026157;23;20583;-51
2021/10/06 01:01:17;;;;;;;5.73;4.20;;;14.00;99.90;;;;;;5018829;28;20980;-55
2021/10/06 01:03:49;;;;;;;6.20;4.50;;;13.90;99.90;;;;;;5025660;23;20489;-55
2021/10/06 01:06:20;;;;;;;4.67;3.90;;;14.00;99.90;;;;;;5018532;28;20444;-57
2021/10/06 01:08:50;;;;;;;5.63;4.87;;;13.90;99.90;;;;;;5025226;23;20492;-56
2021/10/06 01:11:19;;;;;;;4.23;3.60;;;13.90;99.90;;;;;;5018558;28;20844;-57
2021/10/06 01:13:47;;;;;;;5.20;4.07;;;13.90;99.90;;;;;;5025709;23;20493;-57
2021/10/06 01:16:14;;;;;;;6.40;3.90;;;13.70;99.90;;;;;;5018346;28;20460;-55
2021/10/06 01:18:40;;;;;;;5.20;3.50;;;13.70;99.90;;;;;;5025395;23;20571;-55
2021/10/06 01:21:12;;;;;;;5.50;4.40;;;13.80;99.90;;;;;;5018222;28;20464;-57
2021/10/06 01:23:42;;;;;;;4.27;3.10;;;13.80;99.90;;;;;;5025672;23;20558;-52
2021/10/06 01:26:10;;;;;;;8.60;4.40;;;13.80;99.90;;;;;;5018532;28;20464;-55
2021/10/06 01:28:39;;;;;;;9.57;3.67;;;13.80;99.90;;;;;;5025256;23;20445;-57
2021/10/06 01:31:06;;;;;;;6.50;4.40;;;13.90;99.90;;;;;;5018985;28;20550;-55
2021/10/06 01:33:35;;;;;;;5.53;3.90;;;13.90;99.90;;;;;;5027863;23;20513;-58
2021/10/06 01:36:02;;;;;;;5.50;3.97;;;13.90;99.90;;;;;;5018340;28;20452;-57
2021/10/06 01:41:10;;;;;;;8.10;4.27;;;13.90;99.90;;;;;;5023685;23;20496;-54
2021/10/06 01:43:37;;;;;;;4.40;4.00;;;13.90;99.90;;;;;;5017816;28;20856;-54
2021/10/06 01:46:04;;;;;;;4.50;3.50;;;13.90;99.90;;;;;;5017859;28;20789;-52
2021/10/06 01:48:31;;;;;;;4.20;3.50;;;14.00;99.90;;;;;;5017553;28;20957;-57
2021/10/06 01:50:57;;;;;;;4.67;3.93;;;14.00;99.90;;;;;;5018023;28;20544;-56
2021/10/06 01:53:37;;;;;;;4.83;3.40;;;14.00;99.90;;;;;;5018029;28;20465;-56
2021/10/06 01:56:04;;;;;;;4.33;3.93;;;14.10;99.90;;;;;;5017188;28;20483;-58
2021/10/06 01:58:31;;;;;;;5.70;3.40;;;14.20;99.90;;;;;;5018053;28;20450;-56
2021/10/06 02:00:58;;;;;;;3.73;2.90;;;14.20;99.90;;;;;;5017502;28;20483;-58
2021/10/06 02:03:25;;;;;;;3.93;2.83;;;14.20;99.90;;;;;;5017526;28;20515;-54
2021/10/06 02:05:51;;;;;;;4.83;3.33;;;14.20;99.90;;;;;;5017121;28;20449;-58
2021/10/06 02:08:18;;;;;;;4.17;3.70;;;14.20;99.90;;;;;;5017431;28;20457;-56
2021/10/06 02:10:47;;;;;;;3.57;3.03;;;14.30;99.90;;;;;;5016904;28;20980;-57
2021/10/06 02:13:14;;;;;;;3.47;3.00;;;14.30;99.90;;;;;;5017397;28;20511;-58
2021/10/06 02:15:41;;;;;;;4.80;3.03;;;14.30;99.90;;;;;;5017207;28;20546;-57
2021/10/06 02:18:09;;;;;;;10.10;3.20;;;14.30;99.90;;;;;;5017316;28;20504;-57
2021/10/06 02:20:35;;;;;;;4.30;3.47;;;14.30;99.90;;;;;;5017255;28;20532;-55
2021/10/06 02:23:04;;;;;;;7.00;3.57;;;14.30;99.90;;;;;;5017035;28;20462;-54
2021/10/06 02:25:31;;;;;;;3.53;3.23;;;14.30;99.90;;;;;;5017269;28;20964;-55
2021/10/06 02:27:59;;;;;;;5.40;4.30;;;14.30;99.90;;;;;;5016975;28;20797;-54
2021/10/06 02:30:26;;;;;;;6.23;3.57;;;14.30;99.90;;;;;;5017199;28;20503;-55
2021/10/06 02:32:53;;;;;;;3.80;2.60;;;14.20;99.90;;;;;;5016847;28;20516;-56
2021/10/06 02:35:20;;;;;;;3.20;2.90;;;14.20;99.90;;;;;;5016952;28;20449;-58
2021/10/06 02:37:46;;;;;;;4.50;3.13;;;14.20;99.90;;;;;;5017178;28;20531;-58
2021/10/06 02:40:16;;;;;;;3.60;2.73;;;14.10;99.90;;;;;;5028263;28;20823;-55
2021/10/06 02:42:45;;;;;;;5.00;3.97;;;14.00;99.90;;;;;;5036761;28;20443;-58
2021/10/06 02:45:14;;;;;;;16.03;3.60;;;13.90;99.90;;;;;;5036584;28;20452;-57
2021/10/06 02:47:42;;;;;;;4.43;3.70;;;13.90;99.90;;;;;;5036304;28;20456;-56
2021/10/06 02:50:14;;;;;;;5.43;3.20;;;13.90;99.90;;;;;;5036199;28;20472;-58
2021/10/06 02:52:41;;;;;;;9.30;6.93;;;13.90;99.90;;;;;;5036553;28;20472;-52
2021/10/06 02:55:09;;;;;;;3.73;3.30;;;13.90;99.90;;;;;;5036341;28;20472;-57
2021/10/06 02:57:36;;;;;;;4.30;3.73;;;13.90;99.90;;;;;;5036271;28;20448;-55
2021/10/06 03:00:05;;;;;;;3.70;3.40;;;13.90;99.90;;;;;;5035886;28;20964;-57
2021/10/06 03:02:33;;;;;;;5.90;4.50;;;13.90;99.90;;;;;;5036338;28;20433;-56
2021/10/06 03:05:00;;;;;;;4.93;3.47;;;13.90;99.90;;;;;;5036319;28;20509;-56
2021/10/06 03:07:26;;;;;;;6.03;4.13;;;13.90;99.90;;;;;;5035842;28;20464;-57
2021/10/06 03:09:53;;;;;;;4.40;3.43;;;13.90;99.90;;;;;;5036085;28;20452;-56
2021/10/06 03:12:20;;;;;;;6.93;3.30;;;13.80;99.90;;;;;;5035834;28;20492;-54
2021/10/06 03:14:46;;;;;;;3.57;3.20;;;13.80;99.90;;;;;;5035659;28;20456;-56
2021/10/06 03:17:13;;;;;;;3.63;3.30;;;13.80;99.90;;;;;;5035914;28;20476;-56
2021/10/06 03:19:41;;;;;;;4.20;3.37;;;13.80;99.90;;;;;;5035605;28;21060;-52
2021/10/06 03:22:08;;;;;;;4.33;3.40;;;13.90;99.90;;;;;;5035899;28;20468;-56
2021/10/06 03:24:34;;;;;;;4.33;3.40;;;13.90;99.90;;;;;;5035801;28;20452;-55
2021/10/06 03:27:01;;;;;;;4.37;3.63;;;13.90;99.90;;;;;;5035742;28;20452;-57
2021/10/06 03:29:28;;;;;;;4.47;3.40;;;13.90;99.90;;;;;;5035769;28;20444;-58
2021/10/06 03:31:55;;;;;;;3.87;3.47;;;13.90;99.90;;;;;;5036225;28;20570;-58
2021/10/06 03:34:22;;;;;;;5.53;3.40;;;13.90;99.90;;;;;;5036334;28;20472;-57
2021/10/06 03:36:50;;;;;;;5.40;3.90;;;13.90;99.90;;;;;;5036667;28;20444;-57
2021/10/06 03:39:16;;;;;;;7.63;3.43;;;13.90;99.90;;;;;;5035955;28;20871;-59
2021/10/06 03:41:43;;;;;;;4.20;3.33;;;13.90;99.90;;;;;;5035457;28;20463;-56
2021/10/06 03:44:10;;;;;;;4.20;3.17;;;14.00;99.90;;;;;;5035388;28;20517;-55
2021/10/06 03:46:36;;;;;;;5.77;4.23;;;14.00;99.90;;;;;;5035433;28;20486;-57
2021/10/06 03:49:03;;;;;;;5.03;3.23;;;13.90;99.90;;;;;;5035028;28;20498;-55
2021/10/06 03:51:30;;;;;;;5.77;4.60;;;14.00;99.90;;;;;;5035318;28;20597;-55
2021/10/06 03:53:58;;;;;;;4.83;3.67;;;13.90;99.90;;;;;;5035315;28;20451;-53
2021/10/06 03:56:25;;;;;;;5.30;3.70;;;14.00;99.90;;;;;;5035095;28;20537;-52
2021/10/06 03:58:52;;;;;;;4.80;4.30;;;14.10;99.90;;;;;;5034968;28;20448;-58
2021/10/06 04:01:20;;;;;;;5.40;3.60;;;14.10;99.90;;;;;;5034989;28;20468;-58
2021/10/06 04:03:47;;;;;;;4.53;3.47;;;14.10;99.90;;;;;;5035098;28;20482;-58
2021/10/06 04:06:14;;;;;;;4.03;3.63;;;14.00;99.90;;;;;;5034906;28;20448;-60
2021/10/06 04:08:41;;;;;;;5.73;3.40;;;14.10;99.90;;;;;;5035787;28;20514;-56
2021/10/06 04:11:09;;;;;;;4.10;3.70;;;14.10;99.90;;;;;;5035251;28;20480;-60
2021/10/06 04:13:39;;;;;;;5.10;3.87;;;14.00;99.90;;;;;;5035728;28;20534;-56
2021/10/06 04:16:09;;;;;;;6.33;4.00;;;14.00;99.90;;;;;;5035295;28;20978;-57
2021/10/06 04:18:35;;;;;;;5.67;3.90;;;14.10;99.90;;;;;;5033262;28;20480;-55
2021/10/06 04:21:02;;;;;;;6.07;4.67;;;14.10;99.90;;;;;;5034980;28;20444;-51
2021/10/06 04:23:29;;;;;;;6.53;3.70;;;14.10;99.90;;;;;;5034731;28;20480;-54
2021/10/06 04:25:56;;;;;;;4.83;4.23;;;14.10;99.90;;;;;;5034755;28;20452;-52
2021/10/06 04:28:24;;;;;;;6.93;4.03;;;14.00;99.90;;;;;;5034834;28;20518;-56
2021/10/06 04:30:50;;;;;;;5.70;4.17;;;14.00;99.90;;;;;;5034693;28;20506;-54
2021/10/06 04:33:17;;;;;;;5.30;4.57;;;14.10;99.90;;;;;;5034629;28;20861;-50
2021/10/06 04:35:43;;;;;;;6.27;4.73;;;14.10;99.90;;;;;;5034243;28;20964;-54
2021/10/06 04:38:12;;;;;;;5.47;3.90;;;14.00;99.90;;;;;;5034722;28;20459;-56
2021/10/06 04:40:40;;;;;;;6.10;3.87;;;14.00;99.90;;;;;;5034606;28;20542;-55
2021/10/06 04:43:10;;;;;;;8.63;4.63;;;14.00;99.90;;;;;;5034409;28;20539;-56
2021/10/06 04:45:38;;;;;;;9.50;5.20;;;14.00;99.90;;;;;;5034573;28;20468;-55
2021/10/06 04:48:05;;;;;;;6.30;4.07;;;14.00;99.90;;;;;;5034525;28;20459;-53
2021/10/06 04:50:32;;;;;;;6.73;4.37;;;14.00;99.90;;;;;;5034594;28;20444;-58
2021/10/06 04:52:59;;;;;;;5.47;3.83;;;14.10;99.90;;;;;;5034449;28;20479;-58
2021/10/06 04:55:25;;;;;;;9.57;4.87;;;14.10;99.90;;;;;;5034109;28;21052;-56
2021/10/06 04:57:53;;;;;;;5.37;4.30;;;14.10;99.90;;;;;;5033579;28;20480;-57
2021/10/06 05:00:20;;;;;;;6.47;4.20;;;14.10;99.90;;;;;;5031099;28;20953;-57
2021/10/06 05:02:49;;;;;;;8.77;4.40;;;14.10;99.90;;;;;;5040513;23;20501;-55
2021/10/06 05:05:20;;;;;;;4.53;3.63;;;14.00;99.90;;;;;;5021291;28;20430;-54
2021/10/06 05:07:47;;;;;;;3.87;3.47;;;14.00;99.90;;;;;;5029816;23;20535;-53
2021/10/06 05:10:18;;;;;;;5.47;3.70;;;14.00;99.90;;;;;;5041082;28;20563;-54
2021/10/06 05:12:48;;;;;;;4.93;3.20;;;14.00;99.90;;;;;;5050023;23;20491;-56
2021/10/06 05:15:14;;;;;;;5.83;3.50;;;14.00;99.90;;;;;;5021224;28;20472;-53
2021/10/06 05:17:41;;;;;;;6.10;4.40;;;14.00;99.90;;;;;;5017642;28;20465;-49
2021/10/06 05:20:10;;;;;;;6.03;4.50;;;14.00;99.90;;;;;;5090055;23;20852;-55
2021/10/06 05:22:37;;;;;;;5.90;4.20;;;14.00;99.90;;;;;;5037045;28;20432;-49
2021/10/06 05:25:04;;;;;;;4.57;3.70;;;14.00;99.90;;;;;;5044231;23;20491;-51
2021/10/06 05:27:31;;;;;;;4.50;3.50;;;14.00;99.90;;;;;;5037237;28;20478;-48
2021/10/06 05:29:58;;;;;;;7.63;4.87;;;14.00;99.90;;;;;;5038228;23;20488;-49
2021/10/06 05:32:25;;;;;;;4.60;3.53;;;13.90;99.90;;;;;;5022373;28;20555;-52
2021/10/06 05:34:51;;;;;;;4.23;3.40;;;13.90;99.90;;;;;;5022084;28;20475;-47
2021/10/06 05:37:19;;;;;;;3.83;3.20;;;13.90;99.90;;;;;;5022300;28;20464;-52
2021/10/06 05:39:46;;;;;;;4.27;3.53;;;13.80;99.90;;;;;;5021540;28;20456;-54
2021/10/06 05:42:13;;;;;;;5.80;2.87;;;13.80;99.90;;;;;;5043853;23;20877;-49
2021/10/06 05:44:39;;;;;;;7.00;3.90;;;13.70;99.90;;;;;;5038285;28;20596;-51
2021/10/06 05:47:06;;;;;;;4.50;3.50;;;13.70;99.90;;;;;;5045986;23;20866;-49
2021/10/06 05:49:33;;;;;;;6.60;4.60;;;13.60;99.90;;;;;;5038855;28;20444;-51
2021/10/06 05:51:59;;;;;;;5.90;4.60;;;13.60;99.90;;;;;;5046816;23;20556;-51
2021/10/06 05:54:27;;;;;;;5.97;4.07;;;13.60;99.90;;;;;;5039280;28;20475;-52
2021/10/06 05:56:54;;;;;;;5.77;4.20;;;13.60;99.90;;;;;;5046340;23;20565;-49
2021/10/06 05:59:21;;;;;;;5.00;3.47;;;13.60;99.90;;;;;;5038457;28;20979;-53
2021/10/06 06:01:47;;;;;;;4.03;3.63;;;13.50;99.90;;;;;;5047059;23;20502;-53
2021/10/06 06:04:17;;;;;;;6.50;3.47;;;13.50;99.90;;;;;;5038816;28;20472;-53
2021/10/06 06:06:44;;;;;;;4.60;3.33;;;13.50;99.90;;;;;;5045820;23;20448;-50
2021/10/06 06:09:12;;;;;;;15.83;4.20;;;13.50;99.90;;;;;;5040922;28;20559;-48
2021/10/06 06:14:11;;;;;;;7.60;4.23;;;13.60;99.90;;;;;;5045874;23;20488;-53
2021/10/06 06:16:38;;;;;;;7.93;4.13;;;13.70;99.90;;;;;;5041052;28;20456;-51
2021/10/06 06:19:05;;;;;;;6.13;4.00;;;13.60;99.90;;;;;;5055996;28;20451;-46
2021/10/06 06:21:32;;;;;;;6.77;4.20;;;13.60;99.90;;;;;;5058372;28;20454;-50
2021/10/06 06:23:59;;;;;;;6.50;3.87;;;13.60;99.90;;;;;;5044211;28;20458;-55
2021/10/06 06:26:25;;;;;;;4.70;3.40;;;13.60;99.90;;;;;;5044854;28;20855;-51
2021/10/06 06:28:52;;;;;;;7.03;4.63;;;13.60;99.90;;;;;;5041677;28;20811;-51
2021/10/06 06:31:20;;;;;;;4.13;3.03;;;13.60;99.90;;;;;;5038607;28;20538;-53
2021/10/06 06:33:47;;;;;;;4.73;3.93;;;13.60;99.90;;;;;;5038273;28;20798;-53
2021/10/06 06:36:14;;;;;;;4.43;3.50;;;13.60;99.90;;;;;;5038178;28;20533;-50
2021/10/06 06:38:41;;;;;;;5.47;3.60;;;13.60;99.90;;;;;;5038114;28;20983;-53
2021/10/06 06:41:08;;;;;;;6.70;4.63;;;13.60;99.90;;;;;;5037625;28;20544;-53
2021/10/06 06:43:34;;;;;;;4.07;3.40;;;13.50;99.90;;;;;;5038734;28;20448;-51
2021/10/06 06:46:01;;;;;;;4.00;2.80;;;13.50;99.90;;;;;;5038397;28;20475;-50
2021/10/06 06:48:29;;;;;;;4.70;3.90;;;13.50;99.90;;;;;;5040057;23;20554;-54
2021/10/06 06:50:57;;;;;;;7.60;3.70;;;13.50;99.90;;;;;;5024258;23;20501;-56
2021/10/06 06:53:26;;;;;;;5.90;3.83;;;13.50;99.90;;;;;;5019146;28;20552;-55
2021/10/06 06:55:53;;;;;;;5.57;3.03;;;13.60;99.90;;;;;;5041472;23;20536;-52
2021/10/06 06:58:20;;;;;;;3.37;2.80;;;13.50;99.90;;;;;;5033836;28;20442;-48
2021/10/06 07:00:48;;;;;;;3.60;2.30;;;13.60;99.90;;;;;;5037105;28;20433;-46
2021/10/06 07:03:15;;;;;;;11.93;2.27;;;13.60;99.90;;;;;;5037095;28;20491;-50
2021/10/06 07:05:43;;;;;;;3.13;2.20;;;13.60;99.90;;;;;;5074492;23;20553;-50
2021/10/06 07:08:11;;;;;;;3.33;2.20;;;13.60;99.90;;;;;;5038645;28;20448;-55
2021/10/06 07:10:38;;;;;;;4.47;2.60;;;13.60;99.90;;;;;;5051942;23;20479;-51
2021/10/06 07:13:07;;;;;;;6.83;2.50;;;13.60;99.90;;;;;;5058279;28;20479;-51
2021/10/06 07:15:35;;;;;;;8.53;2.10;;;13.60;99.90;;;;;;5080703;22;20471;-54
2021/10/06 07:18:03;;;;;;;3.50;2.20;;;13.60;99.90;;;;;;5064406;28;20459;-53
2021/10/06 07:20:30;;;;;;;4.40;2.87;;;13.60;99.90;;;;;;5081634;22;20469;-55
2021/10/06 07:23:01;;;;;;;2.93;2.63;;;13.60;99.90;;;;;;5057416;28;20486;-49
2021/10/06 07:25:28;;;;;;;5.43;1.93;;;13.60;99.90;;;;;;5064069;23;20428;-49
2021/10/06 07:27:55;;;;;;;2.20;1.93;;;13.60;99.90;;;;;;5017986;28;20478;-50
2021/10/06 07:33:04;;;;;;;3.10;1.70;;;13.60;99.90;;;;;;5078782;23;20480;-52
2021/10/06 07:35:32;;;;;;;5.43;1.70;;;13.70;99.90;;;;;;5057877;28;20455;-55
2021/10/06 07:38:06;;;;;;;6.20;2.47;;;13.80;99.90;;;;;;5062672;23;20499;-50
2021/10/06 07:40:33;;;;;;;4.47;1.80;;;13.80;99.90;;;;;;5021521;28;20531;-53
2021/10/06 07:43:00;;;;;;;8.87;2.37;;;13.80;99.90;;;;;;5018084;28;20465;-49
2021/10/06 07:45:27;;;;;;;1.90;1.70;;;13.90;99.90;;;;;;5018810;28;20499;-48
2021/10/06 07:47:53;;;;;;;1.80;1.23;;;14.00;99.90;;;;;;5017997;28;20465;-57
2021/10/06 07:50:20;;;;;;;4.00;1.20;;;14.10;99.90;;;;;;5018696;28;20426;-55
2021/10/06 07:52:47;;;;;;;2.60;1.93;;;14.20;99.90;;;;;;5014862;28;20496;-52
2021/10/06 07:55:15;;;;;;;1.73;1.30;;;14.20;99.90;;;;;;5018357;28;20503;-50
2021/10/06 07:57:41;;;;;;;1.60;1.50;;;14.20;99.90;;;;;;5024341;23;20485;-52
2021/10/06 08:00:09;;;;;;;3.10;1.70;;;14.20;99.90;;;;;;5030413;28;20518;-51
2021/10/06 08:02:36;;;;;;;3.87;1.83;;;14.20;99.90;;;;;;5034377;28;20445;-52
2021/10/06 08:05:03;;;;;;;2.60;1.40;;;14.20;99.90;;;;;;5029191;28;20447;-52
2021/10/06 08:07:30;;;;;;;3.33;1.93;;;14.20;99.90;;;;;;5021639;28;20501;-52
2021/10/06 08:09:57;;;;;;;2.60;1.20;;;14.30;99.90;;;;;;5021136;28;20511;-52
2021/10/06 08:12:25;;;;;;;3.17;2.33;;;14.30;99.90;;;;;;5023215;28;20479;-53
2021/10/06 08:14:51;;;;;;;1.83;1.17;;;14.40;99.90;;;;;;5032031;28;20498;-54
2021/10/06 08:17:18;;;;;;;5.10;1.80;;;14.40;99.90;;;;;;5026976;28;20474;-53
2021/10/06 08:19:46;;;;;;;3.67;1.27;;;14.50;99.90;;;;;;5024915;28;20953;-48
2021/10/06 08:22:13;;;;;;;4.07;1.30;;;14.50;99.90;;;;;;5021671;28;20437;-51
2021/10/06 08:24:40;;;;;;;1.47;1.23;;;14.60;99.90;;;;;;5035658;22;20514;-54
2021/10/06 08:27:08;;;;;;;3.70;1.40;;;14.60;99.90;;;;;;5048000;28;20779;-50
2021/10/06 08:29:36;;;;;;;1.80;1.47;;;14.70;99.90;;;;;;5049837;28;20561;-49
2021/10/06 08:32:03;;;;;;;2.17;1.70;;;14.70;99.90;;;;;;5045350;28;20501;-53
2021/10/06 08:34:30;;;;;;;1.23;1.07;;;14.80;99.90;;;;;;5042553;28;20484;-55
2021/10/06 08:36:56;;;;;;;2.97;1.30;;;15.20;99.90;;;;;;5052395;28;20443;-50
2021/10/06 08:39:23;;;;;;;2.50;1.00;;;16.30;99.90;;;;;;5043126;28;20459;-55
2021/10/06 08:41:50;;;;;;;1.53;1.10;;;17.60;99.90;;;;;;5047976;28;20498;-53
2021/10/06 08:44:17;;;;;;;1.87;1.40;;;19.00;99.90;;;;;;5045524;28;20523;-53
2021/10/06 08:46:45;;;;;;;2.27;1.20;;;20.70;99.90;;;;;;5038529;28;20467;-51
2021/10/06 08:49:12;;;;;;;2.50;1.13;;;22.00;99.90;;;;;;5038204;28;20467;-53
2021/10/06 08:51:39;;;;;;;1.40;1.10;;;22.80;99.90;;;;;;5047944;28;20444;-51
2021/10/06 08:54:06;;;;;;;1.40;1.10;;;23.50;99.90;;;;;;5043723;28;20530;-53
2021/10/06 08:56:33;;;;;;;1.57;1.00;;;23.50;99.90;;;;;;5040577;28;20495;-54
2021/10/06 08:58:59;;;;;;;2.47;1.13;;;24.10;98.70;;;;;;5051458;28;20934;-51
2021/10/06 09:01:28;;;;;;;2.80;1.30;;;24.90;96.00;;;;;;5040726;28;20420;-52
2021/10/06 09:03:57;;;;;;;1.87;0.93;;;25.70;93.80;;;;;;5045643;28;20487;-51
2021/10/06 09:06:33;;;;;;;1.97;1.00;;;26.40;90.70;;;;;;5049120;28;20454;-51
2021/10/06 09:09:10;;;;;;;2.03;1.33;;;26.60;85.60;;;;;;5041193;28;20448;-54
2021/10/06 09:11:37;;;;;;;2.00;1.27;;;25.80;85.00;;;;;;5060917;28;20755;-56
2021/10/06 09:14:06;;;;;;;2.50;1.50;;;24.50;87.50;;;;;;5048997;28;20480;-52
2021/10/06 09:16:33;;;;;;;4.20;1.30;;;23.10;91.10;;;;;;5051394;28;20482;-50
2021/10/06 09:19:01;;;;;;;1.57;1.33;;;22.00;93.80;;;;;;5041090;28;20459;-52
2021/10/06 09:21:27;;;;;;;2.90;2.23;;;21.10;97.00;;;;;;5053114;28;20440;-50
2021/10/06 09:23:55;;;;;;;6.97;4.17;;;20.30;99.90;;;;;;5044876;28;20463;-52
2021/10/06 09:26:22;;;;;;;4.37;2.50;;;20.20;99.90;;;;;;5046789;23;20516;-51
2021/10/06 09:28:50;;;;;;;5.27;2.53;;;20.90;99.90;;;;;;5017342;28;20476;-53
2021/10/06 09:31:19;;;;;;;3.47;2.90;;;21.80;99.90;;;;;;5033521;23;20511;-54
2021/10/06 09:33:48;;;;;;;5.70;3.00;;;22.80;98.90;;;;;;5017470;28;20814;-51
2021/10/06 09:36:18;;;;;;;2.00;1.50;;;23.60;95.80;;;;;;5017247;28;20507;-54
2021/10/06 09:38:48;;;;;;;3.10;2.07;;;24.50;93.20;;;;;;5019223;28;20437;-54
2021/10/06 09:41:35;;;;;;;4.40;2.57;;;25.20;90.90;;;;;;5027033;23;20520;-54
2021/10/06 09:44:05;;;;;;;2.53;1.40;;;25.80;88.30;;;;;;4996053;28;20465;-54
2021/10/06 09:46:51;;;;;;;1.30;1.00;;;26.50;86.60;;;;;;5006290;23;20469;-53
2021/10/06 09:49:20;;;;;;;1.43;1.20;;;27.50;79.80;;;;;;5004659;23;20520;-51
2021/10/06 09:51:49;;;;;;;1.27;1.00;;;28.20;74.90;;;;;;5019555;28;20969;-56
2021/10/06 09:54:15;;;;;;;2.00;1.10;;;28.30;70.80;;;;;;5025477;23;20960;-53
2021/10/06 09:56:44;;;;;;;1.20;0.90;;;28.40;69.80;;;;;;5017524;28;20469;-51
2021/10/06 09:59:13;;;;;;;1.67;1.20;;;28.60;68.10;;;;;;5024681;23;20492;-52
2021/10/06 10:01:41;;;;;;;3.17;1.03;;;28.60;68.20;;;;;;5017392;28;20547;-53
2021/10/06 10:04:10;;;;;;;1.83;1.53;;;28.90;69.40;;;;;;5024968;23;20557;-52
2021/10/06 10:06:37;;;;;;;4.90;2.23;;;29.00;63.80;;;;;;5018877;28;20469;-56
2021/10/06 10:09:07;;;;;;;2.43;1.30;;;28.30;66.50;;;;;;5025286;23;21039;-54
2021/10/06 10:11:35;;;;;;;3.67;1.80;;;28.10;64.20;;;;;;5017699;28;20523;-55
2021/10/06 10:14:04;;;;;;;3.33;1.60;;;27.40;66.80;;;;;;5024590;23;20488;-52
2021/10/06 10:16:31;;;;;;;2.17;1.30;;;27.20;66.30;;;;;;5016071;28;20528;-53
2021/10/06 10:19:04;;;;;;;2.87;2.40;;;26.80;66.80;;;;;;5024011;23;20536;-53
2021/10/06 10:21:32;;;;;;;2.23;1.70;;;25.60;70.00;;;;;;5017161;28;20783;-53
2021/10/06 10:24:09;;;;;;;2.33;1.30;;;24.30;73.10;;;;;;5024049;23;20559;-52
2021/10/06 10:26:38;;;;;;;4.60;1.47;;;23.10;76.40;;;;;;5017199;28;20465;-51
2021/10/06 10:29:32;;;;;;;2.13;1.20;;;22.10;80.30;;;;;;5031838;23;20752;-49
2021/10/06 10:32:04;;;;;;;1.97;1.10;;;21.40;83.80;;;;;;5017720;28;20832;-55
2021/10/06 10:35:03;;;;;;;1.40;1.20;;;21.80;82.80;;;;;;5026238;23;20485;-52
2021/10/06 10:38:15;;;;;;;1.77;1.13;;;22.60;83.20;;;;;;5004002;28;20465;-53
2021/10/06 10:41:02;;;;;;;4.53;2.03;;;22.30;81.50;;;;;;5033582;23;20531;-54
2021/10/06 10:43:32;;;;;;;1.77;1.50;;;21.60;85.00;;;;;;5002097;28;20764;-55
2021/10/06 10:46:11;;;;;;;1.40;1.13;;;21.20;88.20;;;;;;5042803;23;20483;-55
2021/10/06 10:49:01;;;;;;;4.23;1.30;;;21.20;88.50;;;;;;5056967;28;20447;-54
2021/10/06 10:51:43;;;;;;;3.40;1.50;;;21.20;86.90;;;;;;5030159;23;21036;-53
2021/10/06 10:54:10;;;;;;;2.83;1.40;;;20.70;87.40;;;;;;5016343;28;20487;-54
2021/10/06 10:56:50;;;;;;;1.30;1.17;;;20.20;90.00;;;;;;5023512;23;20544;-52
2021/10/06 10:59:19;;;;;;;4.67;2.93;;;19.70;91.70;;;;;;5017055;28;20433;-59
2021/10/06 11:01:49;;;;;;;3.43;1.33;;;19.30;92.20;;;;;;5065115;23;20492;-54
2021/10/06 11:04:19;;;;;;;2.27;1.83;;;19.00;93.70;;;;;;5024835;28;20503;-53
2021/10/06 11:06:47;;;;;;;1.30;1.20;;;18.70;96.20;;;;;;5018780;28;20453;-52
2021/10/06 11:09:38;;;;;;;1.87;1.27;;;18.90;98.20;;;;;;5016234;28;20433;-52
2021/10/06 11:12:40;;;;;;;4.77;1.60;;;19.00;97.70;;;;;;5017414;28;20457;-51
2021/10/06 11:15:33;;;;;;;2.33;1.10;;;19.00;97.70;;;;;;5015809;28;20535;-51
2021/10/06 11:18:18;;;;;;;3.60;1.63;;;18.80;98.30;;;;;;5016048;28;20496;-54
2021/10/06 11:20:48;;;;;;;4.40;1.80;;;18.80;98.70;;;;;;5003013;28;20537;-52
2021/10/06 11:24:00;;;;;;;5.23;1.97;;;18.80;99.50;;;;;;5014802;28;20469;-50
2021/10/06 11:26:33;;;;;;;1.40;1.10;;;18.90;99.90;;;;;;5016188;28;20441;-50
2021/10/06 11:29:04;;;;;;;1.73;1.17;;;18.90;99.90;;;;;;5015716;28;20507;-51
2021/10/06 11:31:33;;;;;;;4.20;1.83;;;18.90;99.90;;;;;;5015854;28;20437;-53
2021/10/06 11:34:01;;;;;;;2.73;1.50;;;18.90;99.90;;;;;;5015520;28;20477;-52
2021/10/06 11:36:30;;;;;;;1.20;1.10;;;18.80;99.90;;;;;;5015756;28;20457;-52
2021/10/06 11:38:58;;;;;;;1.67;1.40;;;18.70;99.90;;;;;;5017178;28;20479;-54
2021/10/06 11:41:25;;;;;;;7.23;3.47;;;18.80;99.90;;;;;;5017148;28;20437;-53
2021/10/06 11:43:54;;;;;;;1.87;1.33;;;18.80;99.90;;;;;;5015654;28;20519;-52
2021/10/06 11:46:24;;;;;;;3.50;1.13;;;18.70;99.90;;;;;;5015282;28;20928;-50
2021/10/06 11:48:53;;;;;;;2.97;1.50;;;18.60;99.90;;;;;;5022340;23;20551;-52
2021/10/06 11:51:21;;;;;;;7.10;1.80;;;18.60;99.90;;;;;;5015520;28;20446;-54
2021/10/06 11:53:49;;;;;;;2.50;1.30;;;18.50;99.90;;;;;;5015002;28;20488;-51
2021/10/06 11:56:30;;;;;;;1.60;1.20;;;18.30;99.90;;;;;;5015467;28;20503;-51
2021/10/06 11:59:09;;;;;;;2.07;1.20;;;18.20;99.90;;;;;;5015312;28;20540;-52
2021/10/06 12:01:37;;;;;;;2.00;1.80;;;18.10;99.90;;;;;;5015587;28;20449;-52
2021/10/06 12:04:15;;;;;;;2.00;1.67;;;18.10;99.90;;;;;;5016976;28;20477;-54
2021/10/06 12:06:44;;;;;;;5.60;1.50;;;18.00;99.90;;;;;;5015331;28;20448;-52
2021/10/06 12:09:12;;;;;;;3.47;1.47;;;18.10;99.90;;;;;;5014447;28;20531;-49
2021/10/06 12:11:40;;;;;;;2.50;1.07;;;18.10;99.90;;;;;;5014362;28;20515;-53
2021/10/06 12:14:25;;;;;;;2.33;1.43;;;18.10;99.90;;;;;;5014616;28;20558;-50
2021/10/06 12:17:06;;;;;;;2.43;1.50;;;18.20;99.90;;;;;;5013434;28;20437;-51
2021/10/06 12:19:34;;;;;;;2.30;1.50;;;18.30;99.90;;;;;;5001790;28;20479;-60
2021/10/06 12:22:01;;;;;;;2.03;1.43;;;18.40;99.90;;;;;;5015004;28;20894;-51
2021/10/06 12:24:29;;;;;;;1.87;1.30;;;18.40;99.90;;;;;;5021819;23;20515;-56
2021/10/06 12:26:57;;;;;;;4.20;1.30;;;18.50;99.90;;;;;;4978622;28;20440;-51
2021/10/06 12:31:56;;;;;;;5.03;1.40;;;18.30;99.90;;;;;;5021102;23;20495;-49
2021/10/06 12:34:26;;;;;;;1.67;1.13;;;18.20;99.90;;;;;;5014310;28;20567;-49
2021/10/06 12:36:55;;;;;;;1.30;1.10;;;18.00;99.90;;;;;;5021751;23;20484;-49
2021/10/06 12:39:25;;;;;;;2.60;1.20;;;18.10;99.90;;;;;;4998136;28;20465;-50
2021/10/06 12:41:54;;;;;;;2.10;1.23;;;18.10;99.90;;;;;;5021938;23;20826;-51
2021/10/06 12:44:24;;;;;;;2.97;1.07;;;18.10;99.90;;;;;;5014463;28;20552;-53
2021/10/06 12:46:53;;;;;;;1.73;1.30;;;18.10;99.90;;;;;;5021608;23;20500;-50
2021/10/06 12:49:20;;;;;;;3.93;1.10;;;18.10;99.90;;;;;;5014641;28;20465;-53
2021/10/06 12:52:01;;;;;;;2.53;1.27;;;18.10;99.90;;;;;;5021761;23;20555;-53
2021/10/06 12:54:30;;;;;;;1.93;1.07;;;18.20;99.90;;;;;;5015883;28;20949;-57
2021/10/06 12:57:00;;;;;;;1.40;1.13;;;18.20;99.90;;;;;;5024339;23;21034;-51
2021/10/06 12:59:35;;;;;;;4.73;1.20;;;18.30;99.90;;;;;;5015561;28;20468;-52
2021/10/06 13:02:04;;;;;;;1.30;1.20;;;18.30;99.90;;;;;;5021884;23;20515;-53
2021/10/06 13:04:31;;;;;;;1.83;1.50;;;18.40;99.90;;;;;;5014401;28;20445;-53
2021/10/06 13:06:59;;;;;;;4.00;1.67;;;18.50;99.90;;;;;;5021725;23;20567;-51
2021/10/06 13:09:26;;;;;;;1.00;0.83;;;18.50;99.90;;;;;;5014284;28;20453;-48
2021/10/06 13:11:56;;;;;;;3.13;1.13;;;18.50;99.90;;;;;;5021770;23;20488;-51
2021/10/06 13:14:23;;;;;;;1.90;1.10;;;18.50;99.90;;;;;;5014374;28;20481;-49
2021/10/06 13:16:51;;;;;;;2.30;1.10;;;18.50;99.90;;;;;;5021662;23;20789;-53
2021/10/06 13:19:19;;;;;;;1.97;1.00;;;18.50;99.90;;;;;;5015641;28;20487;-50